sensor_id;sensor_type;location;lat;lon;timestamp;pressure;altitude;pressure_sealevel;temperature;humidity
55317;BME280;41178;48.956;8.130;2023-06-26T00:03:20;99755.81;;;24.52;38.80
55317;BME280;41178;48.956;8.130;2023-06-26T00:08:22;99758.78;;;24.77;38.10
55317;BME280;41178;48.956;8.130;2023-06-26T00:13:24;99792.72;;;24.60;37.66
55317;BME280;41178;48.956;8.130;2023-06-26T00:18:25;99786.91;;;24.82;37.29
55317;BME280;41178;48.956;8.130;2023-06-26T00:23:27;99769.63;;;23.75;40.09
55317;BME280;41178;48.956;8.130;2023-06-26T00:28:29;99758.50;;;24.73;38.25
55317;BME280;41178;48.956;8.130;2023-06-26T00:33:31;99796.66;;;23.92;39.45
55317;BME280;41178;48.956;8.130;2023-06-26T00:38:32;99772.59;;;23.99;40.08
55317;BME280;41178;48.956;8.130;2023-06-26T00:43:34;99760.28;;;24.02;40.27
55317;BME280;41178;48.956;8.130;2023-06-26T00:48:36;99783.81;;;23.77;39.85
55317;BME280;41178;48.956;8.130;2023-06-26T00:53:39;99793.13;;;22.87;41.03
55317;BME280;41178;48.956;8.130;2023-06-26T00:58:41;99772.28;;;23.55;40.01
55317;BME280;41178;48.956;8.130;2023-06-26T01:03:44;99748.53;;;24.12;39.41
55317;BME280;41178;48.956;8.130;2023-06-26T01:08:48;99794.06;;;23.14;40.96
55317;BME280;41178;48.956;8.130;2023-06-26T01:13:50;99751.81;;;23.37;41.00
55317;BME280;41178;48.956;8.130;2023-06-26T01:18:52;99756.66;;;23.09;41.21
55317;BME280;41178;48.956;8.130;2023-06-26T01:24:16;99759.69;;;23.18;41.58
55317;BME280;41178;48.956;8.130;2023-06-26T01:29:30;99747.78;;;23.70;40.56
55317;BME280;41178;48.956;8.130;2023-06-26T01:34:33;99734.56;;;23.11;41.63
55317;BME280;41178;48.956;8.130;2023-06-26T01:39:35;99770.13;;;22.20;42.57
55317;BME280;41178;48.956;8.130;2023-06-26T01:44:44;99748.50;;;23.19;41.14
55317;BME280;41178;48.956;8.130;2023-06-26T01:49:51;99759.03;;;22.32;42.25
55317;BME280;41178;48.956;8.130;2023-06-26T02:00:19;99751.59;;;22.17;42.17
55317;BME280;41178;48.956;8.130;2023-06-26T02:05:22;99735.16;;;22.02;43.39
55317;BME280;41178;48.956;8.130;2023-06-26T02:10:25;99699.56;;;22.24;43.44
55317;BME280;41178;48.956;8.130;2023-06-26T02:15:27;99702.31;;;22.29;43.65
55317;BME280;41178;48.956;8.130;2023-06-26T02:20:28;99716.94;;;21.75;44.65
55317;BME280;41178;48.956;8.130;2023-06-26T02:25:30;99696.34;;;21.89;44.35
55317;BME280;41178;48.956;8.130;2023-06-26T02:30:32;99737.44;;;21.23;44.97
55317;BME280;41178;48.956;8.130;2023-06-26T02:35:34;99710.97;;;21.78;44.26
55317;BME280;41178;48.956;8.130;2023-06-26T02:40:36;99681.72;;;21.63;45.01
55317;BME280;41178;48.956;8.130;2023-06-26T02:45:38;99685.88;;;20.84;46.91
55317;BME280;41178;48.956;8.130;2023-06-26T02:50:40;99725.00;;;20.39;47.05
55317;BME280;41178;48.956;8.130;2023-06-26T02:55:42;99735.97;;;20.88;45.96
55317;BME280;41178;48.956;8.130;2023-06-26T03:00:44;99722.00;;;21.07;46.02
55317;BME280;41178;48.956;8.130;2023-06-26T03:05:46;99697.81;;;21.65;45.12
55317;BME280;41178;48.956;8.130;2023-06-26T03:10:47;99735.59;;;21.34;45.58
55317;BME280;41178;48.956;8.130;2023-06-26T03:15:49;99709.19;;;21.29;46.18
55317;BME280;41178;48.956;8.130;2023-06-26T03:20:51;99727.75;;;21.65;45.30
55317;BME280;41178;48.956;8.130;2023-06-26T03:25:55;99718.06;;;21.79;44.37
55317;BME280;41178;48.956;8.130;2023-06-26T03:30:57;99748.75;;;21.15;45.66
55317;BME280;41178;48.956;8.130;2023-06-26T03:35:59;99732.84;;;20.57;47.05
55317;BME280;41178;48.956;8.130;2023-06-26T03:41:01;99743.47;;;21.30;44.88
55317;BME280;41178;48.956;8.130;2023-06-26T03:46:03;99733.75;;;21.99;43.91
55317;BME280;41178;48.956;8.130;2023-06-26T03:51:05;99762.53;;;21.57;43.74
55317;BME280;41178;48.956;8.130;2023-06-26T03:56:08;99765.94;;;20.93;44.79
55317;BME280;41178;48.956;8.130;2023-06-26T04:01:10;99743.22;;;20.60;45.64
55317;BME280;41178;48.956;8.130;2023-06-26T04:06:12;99716.13;;;21.15;45.20
55317;BME280;41178;48.956;8.130;2023-06-26T04:11:13;99789.84;;;20.30;45.59
55317;BME280;41178;48.956;8.130;2023-06-26T04:16:15;99718.66;;;21.54;43.54
55317;BME280;41178;48.956;8.130;2023-06-26T04:21:17;99779.75;;;20.69;45.19
55317;BME280;41178;48.956;8.130;2023-06-26T04:26:19;99752.28;;;21.15;44.19
55317;BME280;41178;48.956;8.130;2023-06-26T04:31:21;99687.19;;;22.59;43.08
55317;BME280;41178;48.956;8.130;2023-06-26T04:36:23;99755.25;;;22.43;43.00
55317;BME280;41178;48.956;8.130;2023-06-26T04:41:30;99728.00;;;22.43;43.38
55317;BME280;41178;48.956;8.130;2023-06-26T04:46:31;99736.00;;;22.60;42.81
55317;BME280;41178;48.956;8.130;2023-06-26T04:51:33;99744.25;;;22.23;43.56
55317;BME280;41178;48.956;8.130;2023-06-26T04:56:35;99776.19;;;21.63;44.33
55317;BME280;41178;48.956;8.130;2023-06-26T05:01:37;99782.03;;;21.22;44.97
55317;BME280;41178;48.956;8.130;2023-06-26T05:06:41;99705.38;;;22.43;43.62
55317;BME280;41178;48.956;8.130;2023-06-26T05:11:42;99786.13;;;21.79;44.19
55317;BME280;41178;48.956;8.130;2023-06-26T05:16:44;99755.84;;;21.70;44.52
55317;BME280;41178;48.956;8.130;2023-06-26T05:21:46;99790.16;;;21.44;45.00
55317;BME280;41178;48.956;8.130;2023-06-26T05:26:49;99750.53;;;22.76;43.75
55317;BME280;41178;48.956;8.130;2023-06-26T05:31:53;99787.13;;;21.95;44.57
55317;BME280;41178;48.956;8.130;2023-06-26T05:36:58;99806.00;;;21.25;45.52
55317;BME280;41178;48.956;8.130;2023-06-26T05:42:00;99758.91;;;21.47;45.20
55317;BME280;41178;48.956;8.130;2023-06-26T05:47:02;99764.88;;;21.76;44.85
55317;BME280;41178;48.956;8.130;2023-06-26T05:52:04;99747.75;;;21.48;46.11
55317;BME280;41178;48.956;8.130;2023-06-26T05:57:07;99738.25;;;22.21;45.00
55317;BME280;41178;48.956;8.130;2023-06-26T06:02:09;99740.03;;;22.47;44.86
55317;BME280;41178;48.956;8.130;2023-06-26T06:07:11;99735.88;;;22.40;44.85
55317;BME280;41178;48.956;8.130;2023-06-26T06:12:13;99803.09;;;21.59;45.63
55317;BME280;41178;48.956;8.130;2023-06-26T06:17:15;99721.38;;;22.87;44.08
55317;BME280;41178;48.956;8.130;2023-06-26T06:22:16;99788.38;;;22.20;45.07
55317;BME280;41178;48.956;8.130;2023-06-26T06:27:19;99802.88;;;22.68;44.60
55317;BME280;41178;48.956;8.130;2023-06-26T06:32:21;99733.81;;;23.67;43.31
55317;BME280;41178;48.956;8.130;2023-06-26T06:37:22;99808.44;;;22.46;44.50
55317;BME280;41178;48.956;8.130;2023-06-26T06:42:24;99741.44;;;23.34;43.59
55317;BME280;41178;48.956;8.130;2023-06-26T06:47:26;99794.88;;;23.09;43.56
55317;BME280;41178;48.956;8.130;2023-06-26T06:52:28;99778.25;;;24.54;41.75
55317;BME280;41178;48.956;8.130;2023-06-26T06:57:30;99772.31;;;24.11;41.83
55317;BME280;41178;48.956;8.130;2023-06-26T07:02:32;99823.41;;;23.75;41.12
55317;BME280;41178;48.956;8.130;2023-06-26T07:07:34;99820.13;;;23.78;41.81
55317;BME280;41178;48.956;8.130;2023-06-26T07:12:37;99767.53;;;24.73;41.27
55317;BME280;41178;48.956;8.130;2023-06-26T07:17:39;99808.13;;;24.25;41.17
55317;BME280;41178;48.956;8.130;2023-06-26T07:22:42;99806.34;;;24.81;40.05
55317;BME280;41178;48.956;8.130;2023-06-26T07:27:44;99797.09;;;24.71;40.51
55317;BME280;41178;48.956;8.130;2023-06-26T07:32:49;99831.91;;;24.20;41.50
55317;BME280;41178;48.956;8.130;2023-06-26T07:37:51;99801.22;;;25.29;41.07
55317;BME280;41178;48.956;8.130;2023-06-26T07:42:53;99835.31;;;24.92;41.10
55317;BME280;41178;48.956;8.130;2023-06-26T07:47:55;99824.16;;;24.68;41.21
55317;BME280;41178;48.956;8.130;2023-06-26T07:52:57;99792.53;;;25.06;40.63
55317;BME280;41178;48.956;8.130;2023-06-26T07:57:59;99859.47;;;23.72;42.70
55317;BME280;41178;48.956;8.130;2023-06-26T08:03:03;99778.19;;;25.75;40.86
55317;BME280;41178;48.956;8.130;2023-06-26T08:08:05;99843.91;;;23.93;42.71
55317;BME280;41178;48.956;8.130;2023-06-26T08:13:08;99832.16;;;24.13;42.49
55317;BME280;41178;48.956;8.130;2023-06-26T08:18:10;99815.63;;;24.90;41.73
55317;BME280;41178;48.956;8.130;2023-06-26T08:23:12;99791.19;;;25.54;41.08
55317;BME280;41178;48.956;8.130;2023-06-26T08:28:14;99841.75;;;24.36;42.26
55317;BME280;41178;48.956;8.130;2023-06-26T08:33:15;99787.53;;;25.63;40.67
55317;BME280;41178;48.956;8.130;2023-06-26T08:38:17;99850.06;;;25.56;40.45
55317;BME280;41178;48.956;8.130;2023-06-26T08:43:22;99795.78;;;25.63;41.58
55317;BME280;41178;48.956;8.130;2023-06-26T08:48:24;99827.59;;;25.59;40.80
55317;BME280;41178;48.956;8.130;2023-06-26T08:53:49;99836.22;;;24.62;43.08
55317;BME280;41178;48.956;8.130;2023-06-26T08:58:51;99818.72;;;25.33;41.86
55317;BME280;41178;48.956;8.130;2023-06-26T09:03:54;99865.47;;;24.77;42.43
55317;BME280;41178;48.956;8.130;2023-06-26T09:08:56;99823.63;;;25.36;41.97
55317;BME280;41178;48.956;8.130;2023-06-26T09:13:59;99800.00;;;26.14;41.06
55317;BME280;41178;48.956;8.130;2023-06-26T09:19:01;99843.63;;;24.71;42.85
55317;BME280;41178;48.956;8.130;2023-06-26T09:24:03;99867.16;;;25.82;41.88
55317;BME280;41178;48.956;8.130;2023-06-26T09:29:05;99862.09;;;26.64;40.81
55317;BME280;41178;48.956;8.130;2023-06-26T09:34:07;99876.16;;;26.28;41.92
55317;BME280;41178;48.956;8.130;2023-06-26T09:39:09;99837.03;;;26.70;41.26
55317;BME280;41178;48.956;8.130;2023-06-26T09:44:14;99837.13;;;26.89;40.58
55317;BME280;41178;48.956;8.130;2023-06-26T09:49:16;99870.47;;;27.45;39.81
55317;BME280;41178;48.956;8.130;2023-06-26T09:54:21;99888.16;;;27.15;39.21
55317;BME280;41178;48.956;8.130;2023-06-26T09:59:23;99887.78;;;26.09;40.18
55317;BME280;41178;48.956;8.130;2023-06-26T10:04:25;99884.50;;;26.76;39.55
55317;BME280;41178;48.956;8.130;2023-06-26T10:09:27;99858.00;;;25.97;40.80
55317;BME280;41178;48.956;8.130;2023-06-26T10:14:34;99852.19;;;27.54;39.00
55317;BME280;41178;48.956;8.130;2023-06-26T10:19:38;99863.63;;;26.75;39.25
55317;BME280;41178;48.956;8.130;2023-06-26T10:24:41;99844.53;;;27.32;38.39
55317;BME280;41178;48.956;8.130;2023-06-26T10:29:49;99850.56;;;27.91;38.93
55317;BME280;41178;48.956;8.130;2023-06-26T10:34:53;99838.84;;;28.32;37.74
55317;BME280;41178;48.956;8.130;2023-06-26T10:39:59;99879.22;;;27.47;37.86
55317;BME280;41178;48.956;8.130;2023-06-26T10:45:20;99877.66;;;27.60;37.89
55317;BME280;41178;48.956;8.130;2023-06-26T10:55:28;99881.31;;;26.64;38.17
55317;BME280;41178;48.956;8.130;2023-06-26T11:06:22;99849.66;;;27.58;37.66
55317;BME280;41178;48.956;8.130;2023-06-26T11:16:56;99908.34;;;25.72;38.01
55317;BME280;41178;48.956;8.130;2023-06-26T11:22:00;99875.31;;;27.10;36.39
55317;BME280;41178;48.956;8.130;2023-06-26T11:27:04;99892.69;;;26.47;36.54
55317;BME280;41178;48.956;8.130;2023-06-26T11:32:06;99879.25;;;26.16;37.27
55317;BME280;41178;48.956;8.130;2023-06-26T11:37:08;99878.47;;;26.74;36.11
55317;BME280;41178;48.956;8.130;2023-06-26T11:42:10;99901.91;;;26.32;36.21
55317;BME280;41178;48.956;8.130;2023-06-26T11:47:14;99860.91;;;27.18;35.75
55317;BME280;41178;48.956;8.130;2023-06-26T11:52:16;99872.81;;;26.89;35.81
55317;BME280;41178;48.956;8.130;2023-06-26T11:57:18;99912.22;;;26.74;35.46
55317;BME280;41178;48.956;8.130;2023-06-26T12:02:21;99901.09;;;26.61;35.57
55317;BME280;41178;48.956;8.130;2023-06-26T12:07:23;99910.91;;;26.96;34.84
55317;BME280;41178;48.956;8.130;2023-06-26T12:12:25;99901.72;;;27.30;35.60
55317;BME280;41178;48.956;8.130;2023-06-26T12:17:27;99891.56;;;26.18;35.94
55317;BME280;41178;48.956;8.130;2023-06-26T12:22:34;99895.94;;;27.31;35.23
55317;BME280;41178;48.956;8.130;2023-06-26T12:27:36;99890.91;;;27.15;34.60
55317;BME280;41178;48.956;8.130;2023-06-26T12:32:38;99868.91;;;27.39;34.84
55317;BME280;41178;48.956;8.130;2023-06-26T12:37:41;99898.94;;;27.06;34.21
55317;BME280;41178;48.956;8.130;2023-06-26T12:42:45;99870.44;;;27.26;34.44
55317;BME280;41178;48.956;8.130;2023-06-26T12:47:47;99896.56;;;26.75;35.25
55317;BME280;41178;48.956;8.130;2023-06-26T12:52:50;99873.66;;;27.09;34.33
55317;BME280;41178;48.956;8.130;2023-06-26T12:57:52;99862.59;;;27.38;34.53
55317;BME280;41178;48.956;8.130;2023-06-26T13:02:53;99869.88;;;27.86;33.78
55317;BME280;41178;48.956;8.130;2023-06-26T13:07:55;99878.09;;;27.05;34.66
55317;BME280;41178;48.956;8.130;2023-06-26T13:12:58;99862.34;;;26.91;35.26
55317;BME280;41178;48.956;8.130;2023-06-26T13:17:59;99865.56;;;27.80;33.92
55317;BME280;41178;48.956;8.130;2023-06-26T13:23:01;99866.78;;;27.11;34.46
55317;BME280;41178;48.956;8.130;2023-06-26T13:28:03;99845.84;;;28.11;33.77
55317;BME280;41178;48.956;8.130;2023-06-26T13:33:05;99850.56;;;27.53;34.31
55317;BME280;41178;48.956;8.130;2023-06-26T13:38:06;99857.34;;;26.74;34.95
55317;BME280;41178;48.956;8.130;2023-06-26T13:43:08;99856.03;;;26.08;35.72
55317;BME280;41178;48.956;8.130;2023-06-26T13:48:10;99896.59;;;27.61;34.28
55317;BME280;41178;48.956;8.130;2023-06-26T13:53:13;99862.63;;;28.09;33.71
55317;BME280;41178;48.956;8.130;2023-06-26T13:58:15;99865.03;;;26.72;34.69
55317;BME280;41178;48.956;8.130;2023-06-26T14:03:16;99887.19;;;27.48;33.79
55317;BME280;41178;48.956;8.130;2023-06-26T14:08:19;99891.78;;;27.10;34.53
55317;BME280;41178;48.956;8.130;2023-06-26T14:13:21;99859.41;;;27.69;33.32
55317;BME280;41178;48.956;8.130;2023-06-26T14:18:24;99885.06;;;27.21;33.47
55317;BME280;41178;48.956;8.130;2023-06-26T14:23:26;99909.84;;;26.33;33.76
55317;BME280;41178;48.956;8.130;2023-06-26T14:28:28;99904.72;;;25.82;34.26
55317;BME280;41178;48.956;8.130;2023-06-26T14:33:29;99886.31;;;26.86;32.16
55317;BME280;41178;48.956;8.130;2023-06-26T14:38:31;99920.09;;;26.17;32.40
55317;BME280;41178;48.956;8.130;2023-06-26T14:43:33;99936.09;;;25.55;32.22
55317;BME280;41178;48.956;8.130;2023-06-26T14:48:35;99928.91;;;25.75;30.74
55317;BME280;41178;48.956;8.130;2023-06-26T14:53:37;99929.28;;;26.95;29.97
55317;BME280;41178;48.956;8.130;2023-06-26T14:58:38;99904.97;;;26.54;29.34
55317;BME280;41178;48.956;8.130;2023-06-26T15:05:22;99908.88;;;25.09;29.17
55317;BME280;41178;48.956;8.130;2023-06-26T15:10:24;99894.13;;;24.95;28.38
55317;BME280;41178;48.956;8.130;2023-06-26T15:15:28;99910.22;;;25.11;28.27
55317;BME280;41178;48.956;8.130;2023-06-26T15:20:30;99927.31;;;24.47;28.63
55317;BME280;41178;48.956;8.130;2023-06-26T15:25:32;99940.94;;;24.00;28.51
55317;BME280;41178;48.956;8.130;2023-06-26T15:30:36;99947.00;;;24.49;28.55
55317;BME280;41178;48.956;8.130;2023-06-26T15:35:38;99942.91;;;24.57;28.93
55317;BME280;41178;48.956;8.130;2023-06-26T15:40:40;99901.03;;;26.02;28.78
55317;BME280;41178;48.956;8.130;2023-06-26T15:45:42;99922.78;;;26.28;28.37
55317;BME280;41178;48.956;8.130;2023-06-26T15:50:44;99920.19;;;24.87;29.55
55317;BME280;41178;48.956;8.130;2023-06-26T15:55:45;99888.50;;;25.46;28.90
55317;BME280;41178;48.956;8.130;2023-06-26T16:00:48;99919.94;;;24.42;29.25
55317;BME280;41178;48.956;8.130;2023-06-26T16:05:52;99942.25;;;25.21;28.94
55317;BME280;41178;48.956;8.130;2023-06-26T16:10:53;99903.97;;;25.01;29.12
55317;BME280;41178;48.956;8.130;2023-06-26T16:15:55;99915.28;;;24.48;30.27
55317;BME280;41178;48.956;8.130;2023-06-26T16:20:57;99922.81;;;25.13;29.49
55317;BME280;41178;48.956;8.130;2023-06-26T16:25:58;99887.22;;;26.47;29.13
55317;BME280;41178;48.956;8.130;2023-06-26T16:31:00;99935.31;;;25.44;29.48
55317;BME280;41178;48.956;8.130;2023-06-26T16:36:02;99920.16;;;24.92;29.91
55317;BME280;41178;48.956;8.130;2023-06-26T16:41:04;99911.09;;;25.67;29.31
55317;BME280;41178;48.956;8.130;2023-06-26T16:46:05;99910.88;;;24.83;30.54
55317;BME280;41178;48.956;8.130;2023-06-26T16:51:07;99877.94;;;26.08;29.78
55317;BME280;41178;48.956;8.130;2023-06-26T16:56:09;99892.41;;;25.24;30.87
55317;BME280;41178;48.956;8.130;2023-06-26T17:01:10;99911.28;;;25.81;30.24
55317;BME280;41178;48.956;8.130;2023-06-26T17:06:12;99903.75;;;26.02;29.86
55317;BME280;41178;48.956;8.130;2023-06-26T17:11:14;99902.06;;;24.96;30.24
55317;BME280;41178;48.956;8.130;2023-06-26T17:16:15;99934.16;;;24.18;30.65
55317;BME280;41178;48.956;8.130;2023-06-26T17:21:17;99939.81;;;25.04;29.69
55317;BME280;41178;48.956;8.130;2023-06-26T17:26:19;99944.50;;;25.69;29.79
55317;BME280;41178;48.956;8.130;2023-06-26T17:31:21;99948.06;;;25.70;29.50
55317;BME280;41178;48.956;8.130;2023-06-26T17:36:24;99944.84;;;25.57;29.66
55317;BME280;41178;48.956;8.130;2023-06-26T17:41:26;99941.22;;;26.17;29.46
55317;BME280;41178;48.956;8.130;2023-06-26T17:46:28;99968.53;;;25.27;30.42
55317;BME280;41178;48.956;8.130;2023-06-26T17:51:29;99937.09;;;26.14;30.14
55317;BME280;41178;48.956;8.130;2023-06-26T17:56:31;99974.00;;;23.99;31.53
55317;BME280;41178;48.956;8.130;2023-06-26T18:01:33;99977.53;;;23.94;31.23
55317;BME280;41178;48.956;8.130;2023-06-26T18:06:35;99974.25;;;23.87;31.35
55317;BME280;41178;48.956;8.130;2023-06-26T18:11:36;99986.00;;;23.88;31.33
55317;BME280;41178;48.956;8.130;2023-06-26T18:16:38;99957.34;;;24.11;31.64
55317;BME280;41178;48.956;8.130;2023-06-26T18:21:40;99955.22;;;24.23;31.60
55317;BME280;41178;48.956;8.130;2023-06-26T18:26:42;99968.31;;;23.42;32.88
55317;BME280;41178;48.956;8.130;2023-06-26T18:31:44;99973.00;;;24.36;31.92
55317;BME280;41178;48.956;8.130;2023-06-26T18:36:46;100002.50;;;23.50;32.90
55317;BME280;41178;48.956;8.130;2023-06-26T18:41:49;99994.28;;;24.24;32.38
55317;BME280;41178;48.956;8.130;2023-06-26T18:46:51;99994.22;;;22.92;34.07
55317;BME280;41178;48.956;8.130;2023-06-26T18:51:53;99974.19;;;23.77;33.50
55317;BME280;41178;48.956;8.130;2023-06-26T18:56:55;99999.22;;;23.05;33.90
55317;BME280;41178;48.956;8.130;2023-06-26T19:02:02;100015.00;;;23.41;33.72
55317;BME280;41178;48.956;8.130;2023-06-26T19:07:05;100036.91;;;22.71;34.23
55317;BME280;41178;48.956;8.130;2023-06-26T19:12:07;100015.34;;;23.60;33.72
55317;BME280;41178;48.956;8.130;2023-06-26T19:17:09;100017.28;;;23.59;33.75
55317;BME280;41178;48.956;8.130;2023-06-26T19:22:11;100019.13;;;22.68;34.40
55317;BME280;41178;48.956;8.130;2023-06-26T19:27:13;100028.66;;;22.98;34.16
55317;BME280;41178;48.956;8.130;2023-06-26T19:32:16;100043.00;;;22.29;34.48
55317;BME280;41178;48.956;8.130;2023-06-26T19:37:18;99987.06;;;23.81;33.79
55317;BME280;41178;48.956;8.130;2023-06-26T19:42:20;100032.66;;;22.90;34.09
55317;BME280;41178;48.956;8.130;2023-06-26T19:47:21;100054.16;;;22.00;35.20
55317;BME280;41178;48.956;8.130;2023-06-26T19:52:23;100083.19;;;22.16;34.76
55317;BME280;41178;48.956;8.130;2023-06-26T19:57:25;100029.94;;;22.04;35.58
55317;BME280;41178;48.956;8.130;2023-06-26T20:02:26;100077.38;;;21.47;35.85
55317;BME280;41178;48.956;8.130;2023-06-26T20:07:28;100054.88;;;21.73;35.98
55317;BME280;41178;48.956;8.130;2023-06-26T20:12:30;100073.91;;;22.40;34.70
55317;BME280;41178;48.956;8.130;2023-06-26T20:17:31;100060.19;;;21.63;36.11
55317;BME280;41178;48.956;8.130;2023-06-26T20:22:34;100078.88;;;21.76;36.22
55317;BME280;41178;48.956;8.130;2023-06-26T20:27:36;100078.94;;;21.59;36.00
55317;BME280;41178;48.956;8.130;2023-06-26T20:32:38;100070.88;;;22.36;35.66
55317;BME280;41178;48.956;8.130;2023-06-26T20:37:40;100121.91;;;21.57;36.28
55317;BME280;41178;48.956;8.130;2023-06-26T20:42:42;100061.91;;;22.95;35.06
55317;BME280;41178;48.956;8.130;2023-06-26T20:47:44;100131.22;;;22.99;34.72
55317;BME280;41178;48.956;8.130;2023-06-26T20:52:46;100145.09;;;23.57;33.81
55317;BME280;41178;48.956;8.130;2023-06-26T20:57:50;100159.00;;;21.81;35.85
55317;BME280;41178;48.956;8.130;2023-06-26T21:02:52;100110.06;;;22.52;35.53
55317;BME280;41178;48.956;8.130;2023-06-26T21:07:54;100145.84;;;22.56;35.29
55317;BME280;41178;48.956;8.130;2023-06-26T21:12:56;100113.09;;;23.10;34.87
55317;BME280;41178;48.956;8.130;2023-06-26T21:17:57;100092.47;;;23.30;35.23
55317;BME280;41178;48.956;8.130;2023-06-26T21:22:59;100133.19;;;23.04;35.17
55317;BME280;41178;48.956;8.130;2023-06-26T21:28:01;100104.91;;;22.83;36.11
55317;BME280;41178;48.956;8.130;2023-06-26T21:33:03;100130.19;;;22.24;36.49
55317;BME280;41178;48.956;8.130;2023-06-26T21:38:05;100166.75;;;21.89;36.61
55317;BME280;41178;48.956;8.130;2023-06-26T21:43:06;100114.44;;;22.80;35.89
55317;BME280;41178;48.956;8.130;2023-06-26T21:48:08;100124.56;;;22.08;36.85
55317;BME280;41178;48.956;8.130;2023-06-26T21:53:10;100155.13;;;22.60;35.97
55317;BME280;41178;48.956;8.130;2023-06-26T21:58:12;100164.53;;;21.86;36.88
55317;BME280;41178;48.956;8.130;2023-06-26T22:03:14;100131.81;;;22.03;36.47
55317;BME280;41178;48.956;8.130;2023-06-26T22:08:15;100103.97;;;21.78;37.40
55317;BME280;41178;48.956;8.130;2023-06-26T22:13:17;100139.22;;;21.68;36.94
55317;BME280;41178;48.956;8.130;2023-06-26T22:18:19;100121.50;;;21.49;37.32
55317;BME280;41178;48.956;8.130;2023-06-26T22:23:21;100103.09;;;21.73;37.34
55317;BME280;41178;48.956;8.130;2023-06-26T22:28:23;100115.41;;;21.41;37.72
55317;BME280;41178;48.956;8.130;2023-06-26T22:33:25;100149.59;;;21.20;37.46
55317;BME280;41178;48.956;8.130;2023-06-26T22:38:26;100143.81;;;20.83;38.21
55317;BME280;41178;48.956;8.130;2023-06-26T22:43:28;100156.47;;;21.06;37.33
55317;BME280;41178;48.956;8.130;2023-06-26T22:48:30;100161.88;;;20.60;38.45
55317;BME280;41178;48.956;8.130;2023-06-26T22:53:32;100177.81;;;20.16;38.76
55317;BME280;41178;48.956;8.130;2023-06-26T22:58:34;100129.25;;;20.60;38.54
55317;BME280;41178;48.956;8.130;2023-06-26T23:03:36;100141.03;;;20.37;38.59
55317;BME280;41178;48.956;8.130;2023-06-26T23:08:38;100113.84;;;20.37;39.05
55317;BME280;41178;48.956;8.130;2023-06-26T23:13:40;100146.31;;;20.44;38.42
55317;BME280;41178;48.956;8.130;2023-06-26T23:18:41;100152.63;;;20.09;39.11
55317;BME280;41178;48.956;8.130;2023-06-26T23:23:43;100147.41;;;20.72;38.05
55317;BME280;41178;48.956;8.130;2023-06-26T23:28:47;100196.00;;;20.56;37.94
55317;BME280;41178;48.956;8.130;2023-06-26T23:33:48;100174.94;;;20.35;38.60
55317;BME280;41178;48.956;8.130;2023-06-26T23:38:51;100177.84;;;19.57;39.93
55317;BME280;41178;48.956;8.130;2023-06-26T23:43:53;100127.28;;;20.73;38.78
55317;BME280;41178;48.956;8.130;2023-06-26T23:48:54;100197.16;;;20.31;38.78
55317;BME280;41178;48.956;8.130;2023-06-26T23:53:56;100159.41;;;21.04;37.71
55317;BME280;41178;48.956;8.130;2023-06-26T23:58:58;100126.00;;;21.77;37.60
